Medanales, New Mexico
Current Conditions -  °F | °C
As of 10:55 PM on Saturday 22 Nov 2014 (Local Time) from KLAM Reporting Station
Clear Clear  
Wind Chill: 40°   Ceiling: Unl
Heat Index: 40°   Visibility: 10mi
Dew Point: 16°   Wind: 3mph
Humidity: 38%   Direction: 220°SW
Pressure: 29.86"   Gusts: NA
Location:  36.17°N, 106.19°W
Report Text: KLAM 230555Z AUTO 22003KT 10SM CLR 04/M09 A2986 RMK AO2 T00421091 10073 20040 400851015
Loading
Personal Weather Stations






























Interactive Weather Map New forecast layout! Learn more

10-Day Weather Forecast

Advertisements
Track Severe Weather on mobile